createdAt,value
2019-02-06T00:00:47.318Z,27.70
2019-02-06T00:03:24.940Z,27.90
2019-02-06T00:05:55.578Z,27.90
2019-02-06T00:08:27.327Z,27.90
2019-02-06T00:10:58.134Z,27.80
2019-02-06T00:13:29.343Z,27.70
2019-02-06T00:16:00.450Z,27.50
2019-02-06T00:18:32.025Z,27.30
2019-02-06T00:21:02.601Z,27.20
2019-02-06T00:23:33.821Z,26.90
2019-02-06T00:26:05.218Z,26.70
2019-02-06T00:28:36.048Z,26.60
2019-02-06T00:31:06.887Z,26.40
2019-02-06T00:33:39.689Z,26.20
2019-02-06T00:36:10.381Z,26.10
2019-02-06T00:38:41.027Z,25.90
2019-02-06T00:41:13.215Z,25.70
2019-02-06T00:43:44.008Z,25.50
2019-02-06T00:46:15.591Z,25.40
2019-02-06T00:49:06.387Z,25.20
2019-02-06T00:51:37.095Z,25.10
2019-02-06T00:54:09.387Z,24.90
2019-02-06T00:56:40.029Z,24.70
2019-02-06T00:59:11.137Z,24.50
2019-02-06T01:01:41.907Z,24.30
2019-02-06T01:04:12.727Z,24.10
2019-02-06T01:06:43.727Z,23.90
2019-02-06T01:09:14.609Z,23.70
2019-02-06T01:11:45.024Z,23.50
2019-02-06T01:14:15.599Z,23.20
2019-02-06T01:16:46.701Z,23.00
2019-02-06T01:19:17.581Z,22.80
2019-02-06T01:21:48.789Z,22.70
2019-02-06T01:24:19.893Z,22.60
2019-02-06T01:26:50.388Z,22.50
2019-02-06T01:29:20.891Z,22.50
2019-02-06T01:31:53.389Z,22.40
2019-02-06T01:34:24.211Z,22.30
2019-02-06T01:36:55.807Z,22.20
2019-02-06T01:39:26.692Z,22.10
2019-02-06T01:41:57.290Z,22.10
2019-02-06T01:44:28.612Z,22.00
2019-02-06T01:46:59.484Z,21.90
2019-02-06T01:49:30.078Z,21.80
2019-02-06T01:52:01.615Z,21.70
2019-02-06T01:54:33.763Z,21.60
2019-02-06T01:57:04.771Z,21.60
2019-02-06T01:59:35.694Z,21.50
2019-02-06T02:02:07.102Z,21.40
2019-02-06T02:04:37.888Z,21.40
2019-02-06T02:07:08.659Z,21.30
2019-02-06T02:09:40.377Z,21.30
2019-02-06T02:12:11.310Z,21.20
2019-02-06T02:14:42.187Z,21.10
2019-02-06T02:17:13.750Z,21.10
2019-02-06T02:19:44.626Z,21.00
2019-02-06T02:22:14.896Z,21.00
2019-02-06T02:24:45.409Z,21.00
2019-02-06T02:27:16.291Z,20.90
2019-02-06T02:29:47.759Z,20.90
2019-02-06T02:32:18.611Z,20.80
2019-02-06T02:34:50.290Z,20.80
2019-02-06T02:37:22.750Z,20.80
2019-02-06T02:39:53.385Z,20.80
2019-02-06T02:42:24.449Z,20.70
2019-02-06T02:44:54.933Z,20.70
2019-02-06T02:47:25.905Z,20.60
2019-02-06T02:49:56.332Z,20.60
2019-02-06T02:52:27.319Z,20.60
2019-02-06T02:54:57.864Z,20.50
2019-02-06T02:57:28.904Z,20.50
2019-02-06T02:59:59.628Z,20.50
2019-02-06T03:02:44.731Z,20.40
2019-02-06T03:05:19.666Z,20.40
2019-02-06T03:07:50.732Z,20.40
2019-02-06T03:10:22.747Z,20.30
2019-02-06T03:12:53.250Z,20.30
2019-02-06T03:15:24.272Z,20.30
2019-02-06T03:17:55.175Z,20.30
2019-02-06T03:20:26.285Z,20.20
2019-02-06T03:22:57.304Z,20.20
2019-02-06T03:25:28.291Z,20.20
2019-02-06T03:27:59.104Z,20.20
2019-02-06T03:30:32.237Z,20.20
2019-02-06T03:33:02.998Z,20.10
2019-02-06T03:35:33.727Z,20.10
2019-02-06T03:38:04.613Z,20.10
2019-02-06T03:40:35.992Z,20.10
2019-02-06T03:43:06.669Z,20.10
2019-02-06T03:45:37.175Z,20.00
2019-02-06T03:48:07.577Z,20.00
2019-02-06T03:50:38.857Z,20.00
2019-02-06T03:53:10.734Z,20.00
2019-02-06T03:55:42.021Z,20.00
2019-02-06T03:58:12.576Z,20.00
2019-02-06T04:00:44.328Z,20.00
2019-02-06T04:03:14.951Z,19.90
2019-02-06T04:05:45.414Z,19.90
2019-02-06T04:08:15.832Z,19.90
2019-02-06T04:10:46.325Z,19.90
2019-02-06T04:13:16.864Z,19.90
2019-02-06T04:15:47.728Z,19.90
2019-02-06T04:18:18.498Z,19.80
2019-02-06T04:20:49.420Z,19.80
2019-02-06T04:23:20.459Z,19.80
2019-02-06T04:25:51.951Z,19.80
2019-02-06T04:28:22.531Z,19.80
2019-02-06T04:30:53.571Z,19.80
2019-02-06T04:33:24.599Z,19.80
2019-02-06T04:35:55.659Z,19.80
2019-02-06T04:38:25.977Z,19.70
2019-02-06T04:40:56.458Z,19.70
2019-02-06T04:43:27.341Z,19.70
2019-02-06T04:46:02.333Z,19.70
2019-02-06T04:48:32.861Z,19.70
2019-02-06T04:51:04.128Z,19.60
2019-02-06T04:53:35.054Z,19.60
2019-02-06T04:56:06.159Z,19.60
2019-02-06T04:58:37.732Z,19.60
2019-02-06T05:01:08.637Z,19.60
2019-02-06T05:03:39.146Z,19.60
2019-02-06T05:06:10.253Z,19.60
2019-02-06T05:08:41.343Z,19.90
2019-02-06T05:11:12.144Z,20.50
2019-02-06T05:13:42.566Z,21.30
2019-02-06T05:16:14.231Z,22.20
2019-02-06T05:18:44.924Z,23.00
2019-02-06T05:21:15.327Z,23.70
2019-02-06T05:23:47.128Z,24.30
2019-02-06T05:26:17.765Z,24.70
2019-02-06T05:28:48.652Z,25.00
2019-02-06T05:31:19.698Z,25.30
2019-02-06T05:33:50.460Z,25.60
2019-02-06T05:36:21.067Z,25.90
2019-02-06T05:38:51.702Z,26.10
2019-02-06T05:41:22.307Z,26.30
2019-02-06T05:43:53.786Z,26.40
2019-02-06T05:46:24.549Z,26.50
2019-02-06T05:48:55.985Z,26.60
2019-02-06T05:51:26.540Z,26.70
2019-02-06T05:53:57.538Z,26.80
2019-02-06T05:56:28.260Z,26.80
2019-02-06T05:58:59.472Z,26.90
2019-02-06T06:01:30.388Z,27.00
2019-02-06T06:04:01.981Z,27.10
2019-02-06T06:06:32.876Z,27.10
2019-02-06T06:09:04.934Z,27.10
2019-02-06T06:11:36.289Z,27.20
2019-02-06T06:14:07.440Z,27.30
2019-02-06T06:16:37.768Z,27.30
2019-02-06T06:19:08.923Z,27.40
2019-02-06T06:21:39.261Z,27.50
2019-02-06T06:24:10.580Z,27.50
2019-02-06T06:26:41.226Z,27.60
2019-02-06T06:29:11.819Z,27.60
2019-02-06T06:31:42.438Z,27.60
2019-02-06T06:34:12.950Z,27.60
2019-02-06T06:36:43.737Z,27.70
2019-02-06T06:39:14.766Z,27.70
2019-02-06T06:41:45.750Z,27.80
2019-02-06T06:44:16.247Z,27.80
2019-02-06T06:46:47.585Z,27.80
2019-02-06T06:49:18.563Z,27.80
2019-02-06T06:51:49.171Z,27.80
2019-02-06T06:54:19.946Z,27.90
2019-02-06T06:56:50.794Z,28.00
2019-02-06T06:59:21.542Z,28.00
2019-02-06T07:01:52.130Z,28.00
2019-02-06T07:04:22.866Z,28.00
2019-02-06T07:06:53.633Z,28.00
2019-02-06T07:09:27.738Z,28.10
2019-02-06T07:11:58.724Z,28.10
2019-02-06T07:14:29.283Z,28.20
2019-02-06T07:17:01.094Z,28.20
2019-02-06T07:19:31.652Z,28.20
2019-02-06T07:22:02.577Z,28.30
2019-02-06T07:24:33.666Z,28.30
2019-02-06T07:27:04.271Z,28.30
2019-02-06T07:29:35.825Z,28.30
2019-02-06T07:32:06.511Z,28.40
2019-02-06T07:34:37.530Z,28.40
2019-02-06T07:37:08.099Z,28.40
2019-02-06T07:39:38.756Z,28.50
2019-02-06T07:42:10.691Z,28.50
2019-02-06T07:44:42.013Z,28.40
2019-02-06T07:47:13.693Z,28.30
2019-02-06T07:49:44.785Z,28.10
2019-02-06T07:52:15.176Z,27.80
2019-02-06T07:54:46.973Z,27.50
2019-02-06T07:57:17.547Z,27.30
2019-02-06T07:59:48.289Z,27.10
2019-02-06T08:02:19.021Z,26.90
2019-02-06T08:04:50.037Z,26.60
2019-02-06T08:07:21.747Z,26.50
2019-02-06T08:09:52.713Z,26.30
2019-02-06T08:12:23.467Z,26.10
2019-02-06T08:14:55.158Z,25.90
2019-02-06T08:17:25.936Z,25.70
2019-02-06T08:19:57.288Z,25.50
2019-02-06T08:22:28.097Z,25.30
2019-02-06T08:24:59.030Z,25.20
2019-02-06T08:27:30.383Z,25.10
2019-02-06T08:30:01.255Z,25.00
2019-02-06T08:32:31.794Z,24.80
2019-02-06T08:35:02.297Z,24.70
2019-02-06T08:37:33.199Z,24.60
2019-02-06T08:40:03.634Z,24.40
2019-02-06T08:42:34.351Z,24.30
2019-02-06T08:45:05.800Z,24.10
2019-02-06T08:47:36.430Z,23.90
2019-02-06T08:50:09.231Z,23.80
2019-02-06T08:52:42.989Z,23.60
2019-02-06T08:55:16.637Z,23.40
2019-02-06T08:57:47.695Z,23.30
2019-02-06T09:00:22.535Z,23.10
2019-02-06T09:02:53.588Z,23.10
2019-02-06T09:05:24.093Z,23.40
2019-02-06T09:07:54.519Z,23.90
2019-02-06T09:10:25.434Z,24.50
2019-02-06T09:12:56.537Z,25.10
2019-02-06T09:15:27.603Z,25.70
2019-02-06T09:17:58.570Z,26.20
2019-02-06T09:20:30.478Z,26.60
2019-02-06T09:23:01.842Z,27.00
2019-02-06T09:25:32.367Z,27.30
2019-02-06T09:28:03.800Z,27.50
2019-02-06T09:30:35.948Z,27.70
2019-02-06T09:33:08.865Z,27.80
2019-02-06T09:35:40.214Z,28.00
2019-02-06T09:38:10.711Z,28.10
2019-02-06T09:40:43.023Z,28.20
2019-02-06T09:43:13.618Z,28.30
2019-02-06T09:45:44.353Z,28.40
2019-02-06T09:48:15.540Z,28.50
2019-02-06T09:50:46.914Z,28.60
2019-02-06T09:53:18.175Z,28.70
2019-02-06T09:55:48.941Z,28.80
2019-02-06T09:58:20.227Z,28.80
2019-02-06T10:00:51.306Z,28.80
2019-02-06T10:03:22.094Z,28.70
2019-02-06T10:05:52.831Z,28.60
2019-02-06T10:08:24.102Z,28.40
2019-02-06T10:10:54.823Z,28.20
2019-02-06T10:13:26.222Z,28.10
2019-02-06T10:15:57.342Z,27.90
2019-02-06T10:18:28.078Z,27.70
2019-02-06T10:20:58.721Z,27.50
2019-02-06T10:23:29.209Z,27.30
2019-02-06T10:25:59.782Z,27.20
2019-02-06T10:28:30.539Z,27.10
2019-02-06T10:31:01.481Z,27.00
2019-02-06T10:33:32.010Z,27.00
2019-02-06T10:36:04.902Z,26.90
2019-02-06T10:38:36.321Z,27.00
2019-02-06T10:41:07.448Z,27.50
2019-02-06T10:43:37.841Z,27.60
2019-02-06T10:46:08.496Z,27.80
2019-02-06T10:48:39.159Z,27.70
2019-02-06T10:51:09.934Z,27.50
2019-02-06T10:53:41.356Z,27.30
2019-02-06T10:56:13.897Z,27.20
2019-02-06T10:58:44.666Z,27.40
2019-02-06T11:01:16.304Z,27.70
2019-02-06T11:03:47.149Z,27.90
2019-02-06T11:06:17.621Z,28.00
2019-02-06T11:08:49.354Z,28.00
2019-02-06T11:11:19.893Z,28.20
2019-02-06T11:13:50.224Z,28.70
2019-02-06T11:16:20.976Z,29.00
2019-02-06T11:18:51.437Z,29.30
2019-02-06T11:21:22.868Z,29.80
2019-02-06T11:23:53.827Z,30.50
2019-02-06T11:26:24.490Z,31.20
2019-02-06T11:29:52.710Z,31.90
2019-02-06T11:32:23.614Z,32.50
2019-02-06T11:34:55.480Z,33.30
2019-02-06T11:37:27.598Z,33.60
2019-02-06T11:39:58.459Z,33.90
2019-02-06T11:42:29.201Z,33.90
2019-02-06T11:45:00.526Z,33.60
2019-02-06T11:47:31.347Z,33.60
2019-02-06T11:50:03.364Z,33.50
2019-02-06T11:52:33.902Z,33.50
2019-02-06T11:55:05.100Z,33.60
2019-02-06T11:57:36.146Z,33.70
2019-02-06T12:00:11.018Z,33.80
2019-02-06T12:02:42.376Z,33.60
2019-02-06T12:05:14.058Z,33.10
2019-02-06T12:07:46.341Z,32.80
2019-02-06T12:10:18.630Z,32.40
2019-02-06T12:12:49.743Z,31.90
2019-02-06T12:15:20.788Z,31.50
2019-02-06T12:17:51.855Z,31.40
2019-02-06T12:20:23.473Z,31.50
2019-02-06T12:22:55.292Z,31.50
2019-02-06T12:25:26.144Z,31.60
2019-02-06T12:27:59.599Z,31.60
2019-02-06T12:30:33.382Z,31.40
2019-02-06T12:33:05.335Z,31.30
2019-02-06T12:35:37.457Z,31.30
2019-02-06T12:38:08.782Z,31.40
2019-02-06T12:40:40.256Z,31.50
2019-02-06T12:43:12.322Z,31.60
2019-02-06T12:45:44.085Z,31.50
2019-02-06T12:48:14.735Z,31.60
2019-02-06T12:50:45.890Z,31.60
2019-02-06T12:53:16.622Z,31.80
2019-02-06T12:55:48.678Z,31.90
2019-02-06T12:58:19.716Z,31.80
2019-02-06T13:00:50.389Z,31.80
2019-02-06T13:03:20.901Z,31.60
2019-02-06T13:05:52.128Z,31.60
2019-02-06T13:08:23.513Z,31.60
2019-02-06T13:10:53.917Z,31.50
2019-02-06T13:13:24.626Z,31.40
2019-02-06T13:15:55.029Z,31.40
2019-02-06T13:18:25.729Z,31.30
2019-02-06T13:20:56.477Z,31.20
2019-02-06T13:23:28.145Z,31.00
2019-02-06T13:25:59.547Z,30.90
2019-02-06T13:28:30.858Z,30.80
2019-02-06T13:31:01.724Z,30.70
2019-02-06T13:33:32.953Z,30.70
2019-02-06T13:36:06.734Z,30.60
2019-02-06T13:38:37.627Z,30.50
2019-02-06T13:41:09.486Z,30.70
2019-02-06T13:43:39.150Z,31.10
2019-02-06T13:46:10.306Z,31.50
2019-02-06T13:48:41.190Z,31.90
2019-02-06T13:51:16.532Z,32.30
2019-02-06T13:53:45.463Z,32.50
2019-02-06T13:56:16.343Z,32.70
2019-02-06T13:58:47.828Z,33.00
2019-02-06T14:01:25.356Z,33.20
2019-02-06T14:03:52.358Z,33.40
2019-02-06T14:06:24.231Z,33.50
2019-02-06T14:08:55.119Z,33.60
2019-02-06T14:11:26.523Z,33.80
2019-02-06T14:13:59.041Z,33.90
2019-02-06T14:16:30.293Z,34.00
2019-02-06T14:19:01.264Z,34.00
2019-02-06T14:21:32.022Z,33.90
2019-02-06T14:24:43.610Z,33.70
2019-02-06T14:27:27.316Z,33.50
2019-02-06T14:30:47.371Z,33.10
2019-02-06T14:34:00.493Z,32.50
2019-02-06T14:37:12.275Z,31.80
2019-02-06T14:40:01.515Z,31.40
2019-02-06T14:43:03.505Z,31.00
2019-02-06T14:46:13.900Z,30.50
2019-02-06T14:49:08.301Z,29.90
2019-02-06T14:52:12.935Z,29.20
2019-02-06T14:55:27.764Z,28.70
2019-02-06T14:58:46.247Z,28.10
2019-02-06T15:02:05.716Z,27.60
2019-02-06T15:05:12.561Z,27.00
2019-02-06T15:07:53.260Z,26.40
2019-02-06T15:11:19.680Z,26.10
2019-02-06T15:14:11.434Z,25.70
2019-02-06T15:17:18.827Z,25.40
2019-02-06T15:20:16.097Z,25.20
2019-02-06T15:23:33.105Z,24.90
2019-02-06T15:26:33.005Z,24.60
2019-02-06T15:29:35.619Z,24.10
2019-02-06T15:32:47.837Z,23.80
2019-02-06T15:35:57.775Z,23.50
2019-02-06T15:39:04.471Z,23.20
2019-02-06T15:42:07.929Z,23.00
2019-02-06T15:45:08.458Z,22.80
2019-02-06T15:47:56.632Z,22.60
2019-02-06T15:51:16.100Z,22.60
2019-02-06T15:54:31.531Z,22.90
2019-02-06T15:57:34.787Z,23.60
2019-02-06T16:00:48.152Z,24.40
2019-02-06T16:03:55.654Z,25.20
2019-02-06T16:06:55.818Z,25.80
2019-02-06T16:10:09.411Z,26.30
2019-02-06T16:13:05.214Z,26.60
2019-02-06T16:16:27.195Z,26.80
2019-02-06T16:19:19.857Z,27.10
2019-02-06T16:22:18.192Z,27.30
2019-02-06T16:25:30.006Z,27.40
2019-02-06T16:28:49.964Z,27.50
2019-02-06T16:31:46.100Z,27.70
2019-02-06T16:34:54.466Z,27.80
2019-02-06T16:37:51.253Z,27.80
2019-02-06T16:41:00.225Z,27.90
2019-02-06T16:44:03.148Z,27.90
2019-02-06T16:47:13.097Z,27.80
2019-02-06T16:50:37.535Z,27.70
2019-02-06T16:53:30.270Z,27.50
2019-02-06T16:56:48.380Z,27.20
2019-02-06T17:00:17.031Z,27.00
2019-02-06T17:03:17.661Z,26.60
2019-02-06T17:06:25.106Z,26.30
2019-02-06T17:09:42.866Z,26.00
2019-02-06T17:12:48.352Z,25.70
2019-02-06T17:15:55.241Z,25.40
2019-02-06T17:19:24.773Z,25.30
2019-02-06T17:22:47.158Z,25.00
2019-02-06T17:26:10.230Z,24.60
2019-02-06T17:29:21.814Z,24.20
2019-02-06T17:32:36.706Z,23.80
2019-02-06T17:35:27.383Z,23.50
2019-02-06T17:38:30.835Z,23.30
2019-02-06T17:41:29.221Z,23.10
2019-02-06T17:44:34.079Z,23.00
2019-02-06T17:47:48.950Z,22.80
2019-02-06T17:50:56.040Z,22.60
2019-02-06T17:53:50.734Z,22.50
2019-02-06T17:56:21.710Z,22.30
2019-02-06T17:58:53.233Z,22.20
2019-02-06T18:01:45.417Z,22.10
2019-02-06T18:04:35.199Z,22.00
2019-02-06T18:07:07.099Z,21.90
2019-02-06T18:09:40.177Z,21.90
2019-02-06T18:12:12.433Z,21.80
2019-02-06T18:14:43.363Z,21.80
2019-02-06T18:17:15.720Z,22.00
2019-02-06T18:19:48.757Z,22.60
2019-02-06T18:22:22.507Z,23.20
2019-02-06T18:24:54.680Z,23.80
2019-02-06T18:27:26.717Z,24.40
2019-02-06T18:29:58.838Z,24.90
2019-02-06T18:32:30.796Z,25.40
2019-02-06T18:35:03.390Z,25.90
2019-02-06T18:37:43.274Z,26.20
2019-02-06T18:40:16.451Z,26.50
2019-02-06T18:42:49.110Z,26.70
2019-02-06T18:45:20.512Z,26.90
2019-02-06T18:47:58.326Z,27.10
2019-02-06T18:50:31.328Z,27.20
2019-02-06T18:53:05.747Z,27.30
2019-02-06T18:55:38.152Z,27.40
2019-02-06T18:58:11.110Z,27.50
2019-02-06T19:00:43.610Z,27.60
2019-02-06T19:03:26.645Z,27.60
2019-02-06T19:05:58.214Z,27.60
2019-02-06T19:08:34.737Z,27.50
2019-02-06T19:11:06.868Z,27.30
2019-02-06T19:13:40.618Z,27.20
2019-02-06T19:16:12.347Z,27.00
2019-02-06T19:18:44.826Z,26.80
2019-02-06T19:21:18.015Z,26.50
2019-02-06T19:23:49.692Z,26.30
2019-02-06T19:26:23.649Z,26.10
2019-02-06T19:28:55.537Z,25.90
2019-02-06T19:31:29.383Z,25.70
2019-02-06T19:34:02.993Z,25.50
2019-02-06T19:36:35.250Z,25.30
2019-02-06T19:39:10.929Z,25.10
2019-02-06T19:41:42.423Z,24.90
2019-02-06T19:44:16.679Z,24.60
2019-02-06T19:46:49.991Z,24.30
2019-02-06T19:49:24.302Z,24.10
2019-02-06T19:51:56.670Z,23.90
2019-02-06T19:54:30.330Z,23.60
2019-02-06T19:57:03.668Z,23.40
2019-02-06T19:59:34.779Z,23.10
2019-02-06T20:02:06.261Z,22.80
2019-02-06T20:04:40.503Z,22.60
2019-02-06T20:07:12.039Z,22.50
2019-02-06T20:09:46.314Z,22.40
2019-02-06T20:12:19.012Z,22.30
2019-02-06T20:14:50.195Z,22.10
2019-02-06T20:17:21.358Z,22.00
2019-02-06T20:19:55.141Z,22.00
2019-02-06T20:22:26.691Z,21.90
2019-02-06T20:24:58.322Z,21.80
2019-02-06T20:27:30.013Z,21.70
2019-02-06T20:30:02.621Z,21.60
2019-02-06T20:32:38.205Z,21.80
2019-02-06T20:35:11.384Z,22.30
2019-02-06T20:37:44.001Z,23.00
2019-02-06T20:40:21.641Z,23.70
2019-02-06T20:42:54.072Z,24.30
2019-02-06T20:45:28.064Z,25.00
2019-02-06T20:48:00.998Z,25.40
2019-02-06T20:50:36.627Z,25.80
2019-02-06T20:53:08.023Z,26.10
2019-02-06T20:55:42.768Z,26.40
2019-02-06T20:58:14.100Z,26.60
2019-02-06T21:00:46.658Z,26.80
2019-02-06T21:03:22.398Z,27.00
2019-02-06T21:05:54.486Z,27.10
2019-02-06T21:08:25.542Z,27.30
2019-02-06T21:11:02.617Z,27.30
2019-02-06T21:13:33.708Z,27.40
2019-02-06T21:16:05.957Z,27.50
2019-02-06T21:18:39.813Z,27.60
2019-02-06T21:21:11.229Z,27.60
2019-02-06T21:23:42.554Z,27.60
2019-02-06T21:26:14.869Z,27.40
2019-02-06T21:28:46.560Z,27.30
2019-02-06T21:31:18.826Z,27.10
2019-02-06T21:33:51.598Z,26.80
2019-02-06T21:36:23.632Z,26.60
2019-02-06T21:38:55.518Z,26.30
2019-02-06T21:41:27.752Z,26.10
2019-02-06T21:43:59.110Z,25.80
2019-02-06T21:46:31.342Z,25.60
2019-02-06T21:49:02.147Z,25.30
2019-02-06T21:51:33.963Z,25.00
2019-02-06T21:54:05.432Z,24.70
2019-02-06T21:56:38.543Z,24.50
2019-02-06T21:59:11.953Z,24.20
2019-02-06T22:01:43.895Z,24.00
2019-02-06T22:04:17.417Z,23.70
2019-02-06T22:06:48.076Z,23.40
2019-02-06T22:09:18.314Z,23.20
2019-02-06T22:11:48.914Z,23.00
2019-02-06T22:14:20.618Z,22.80
2019-02-06T22:16:52.106Z,22.70
2019-02-06T22:19:23.241Z,22.50
2019-02-06T22:21:53.319Z,22.40
2019-02-06T22:24:24.144Z,22.20
2019-02-06T22:26:55.192Z,22.20
2019-02-06T22:29:26.661Z,22.10
2019-02-06T22:31:58.516Z,22.00
2019-02-06T22:34:29.400Z,21.90
2019-02-06T22:36:59.923Z,21.80
2019-02-06T22:39:31.118Z,21.70
2019-02-06T22:42:02.042Z,21.60
2019-02-06T22:44:32.695Z,21.50
2019-02-06T22:47:03.505Z,21.40
2019-02-06T22:49:34.321Z,21.30
2019-02-06T22:52:05.272Z,21.30
2019-02-06T22:54:35.988Z,21.20
2019-02-06T22:57:06.676Z,21.20
2019-02-06T22:59:37.655Z,21.30
2019-02-06T23:02:08.207Z,21.70
2019-02-06T23:04:39.971Z,22.30
2019-02-06T23:07:11.712Z,22.90
2019-02-06T23:09:42.380Z,23.40
2019-02-06T23:12:13.534Z,23.70
2019-02-06T23:14:44.921Z,23.90
2019-02-06T23:17:15.430Z,24.00
2019-02-06T23:19:46.036Z,24.00
2019-02-06T23:22:17.073Z,24.00
2019-02-06T23:24:48.225Z,23.90
2019-02-06T23:27:19.284Z,23.80
2019-02-06T23:29:49.903Z,23.60
2019-02-06T23:32:20.576Z,23.50
2019-02-06T23:34:51.091Z,23.30
2019-02-06T23:37:22.318Z,23.20
2019-02-06T23:39:53.099Z,23.00
2019-02-06T23:42:25.356Z,22.80
2019-02-06T23:45:13.262Z,22.60
2019-02-06T23:47:45.097Z,22.40
2019-02-06T23:50:15.893Z,22.20
2019-02-06T23:52:47.339Z,22.10
2019-02-06T23:55:19.226Z,22.00
2019-02-06T23:57:51.220Z,21.90
